Time;durP1;ratioP1;P1;durP2;ratioP2;P2;SDS_P1;SDS_P2;PMS_P1;PMS_P2;Temp;Humidity;BMP_temperature;BMP_pressure;BME280_temperature;BME280_humidity;BME280_pressure;Samples;Min_cycle;Max_cycle;Signal;HPM_P1;HPM_P2
2023/02/17 00:02:01;;;;;;;5.77;3.90;;;9.20;99.90;;;;;;6211053;23;20893;-74
2023/02/17 00:04:28;;;;;;;8.90;4.50;;;9.10;99.90;;;;;;6210670;23;20411;-74
2023/02/17 00:06:55;;;;;;;7.73;5.13;;;9.10;99.90;;;;;;6210200;23;20408;-73
2023/02/17 00:09:21;;;;;;;6.57;4.20;;;9.00;99.90;;;;;;6209717;23;20410;-74
2023/02/17 00:11:48;;;;;;;6.20;4.13;;;9.00;99.90;;;;;;6210334;23;20914;-73
2023/02/17 00:14:15;;;;;;;6.90;4.10;;;8.90;99.90;;;;;;6215218;23;20448;-74
2023/02/17 00:16:42;;;;;;;8.93;4.10;;;9.00;99.90;;;;;;6202973;23;20461;-74
2023/02/17 00:19:23;;;;;;;4.17;3.77;;;8.90;99.90;;;;;;6215920;23;20407;-74
2023/02/17 00:21:50;;;;;;;7.53;4.30;;;9.10;99.90;;;;;;6214616;23;20388;-74
2023/02/17 00:24:17;;;;;;;11.33;5.13;;;8.90;99.90;;;;;;6213392;23;20406;-74
2023/02/17 00:26:44;;;;;;;6.80;4.13;;;8.90;99.90;;;;;;6209495;23;20411;-73
2023/02/17 00:29:11;;;;;;;5.80;4.53;;;8.80;99.90;;;;;;6212368;23;20412;-74
2023/02/17 00:31:38;;;;;;;4.60;3.53;;;8.80;99.90;;;;;;6213185;23;20418;-74
2023/02/17 00:34:04;;;;;;;5.50;4.63;;;8.80;99.90;;;;;;6212206;23;20447;-74
2023/02/17 00:36:33;;;;;;;7.73;3.70;;;8.70;99.90;;;;;;6212448;23;20434;-74
2023/02/17 00:38:59;;;;;;;9.30;4.77;;;8.70;99.90;;;;;;6213462;23;20430;-74
2023/02/17 00:41:27;;;;;;;11.80;4.73;;;8.70;99.90;;;;;;6218404;23;20487;-74
2023/02/17 00:43:54;;;;;;;9.00;5.00;;;8.70;99.90;;;;;;6213586;23;20403;-74
2023/02/17 00:46:21;;;;;;;6.83;4.60;;;8.70;99.90;;;;;;6211349;23;20919;-74
2023/02/17 00:48:48;;;;;;;7.10;4.47;;;8.70;99.90;;;;;;6210639;23;20399;-76
2023/02/17 00:51:15;;;;;;;8.00;4.33;;;8.80;99.90;;;;;;6209599;23;20435;-74
2023/02/17 00:53:44;;;;;;;6.90;4.80;;;8.70;99.90;;;;;;6209027;23;20767;-74
2023/02/17 00:56:11;;;;;;;6.33;4.10;;;8.70;99.90;;;;;;6209339;23;20407;-74
2023/02/17 00:58:40;;;;;;;6.23;4.73;;;8.70;99.90;;;;;;6209206;23;20435;-74
2023/02/17 01:01:08;;;;;;;6.47;4.10;;;8.80;99.90;;;;;;6209443;23;20439;-74
2023/02/17 01:03:35;;;;;;;6.30;3.77;;;8.70;99.90;;;;;;6209387;23;20395;-74
2023/02/17 01:06:07;;;;;;;8.67;4.43;;;8.60;99.90;;;;;;6210175;23;20407;-74
2023/02/17 01:08:34;;;;;;;7.33;4.43;;;8.60;99.90;;;;;;6209631;23;20450;-74
2023/02/17 01:11:02;;;;;;;8.10;4.37;;;8.60;99.90;;;;;;6210029;23;20901;-75
2023/02/17 01:13:29;;;;;;;10.10;4.30;;;8.60;99.90;;;;;;6214440;23;20450;-74
2023/02/17 01:15:55;;;;;;;8.60;4.60;;;8.50;99.90;;;;;;6213341;23;20411;-74
2023/02/17 01:18:23;;;;;;;10.00;4.10;;;8.60;99.90;;;;;;6210043;23;20407;-74
2023/02/17 01:20:51;;;;;;;8.93;4.70;;;8.50;99.90;;;;;;6209408;23;20660;-74
2023/02/17 01:23:17;;;;;;;6.47;4.53;;;8.50;99.90;;;;;;6208589;23;20399;-74
2023/02/17 01:25:46;;;;;;;4.70;3.90;;;8.50;99.90;;;;;;6207697;23;20933;-74
2023/02/17 01:28:17;;;;;;;7.03;5.10;;;8.40;99.90;;;;;;6208004;23;20407;-74
2023/02/17 01:30:44;;;;;;;7.30;4.57;;;8.40;99.90;;;;;;6208546;23;20391;-74
2023/02/17 01:33:11;;;;;;;8.67;5.20;;;8.50;99.90;;;;;;6208415;23;20446;-74
2023/02/17 01:35:38;;;;;;;7.40;4.57;;;8.30;99.90;;;;;;6207785;23;20937;-74
2023/02/17 01:38:04;;;;;;;9.23;4.30;;;8.30;99.90;;;;;;6207180;23;20970;-74
2023/02/17 01:40:31;;;;;;;8.43;5.00;;;8.30;99.90;;;;;;6207802;23;20411;-73
2023/02/17 01:42:58;;;;;;;7.27;4.50;;;8.30;99.90;;;;;;6207727;23;20414;-74
2023/02/17 01:45:45;;;;;;;6.90;4.80;;;8.30;99.90;;;;;;6207753;23;20826;-74
2023/02/17 01:48:14;;;;;;;7.30;4.90;;;8.50;99.90;;;;;;6207787;23;20402;-73
2023/02/17 01:50:45;;;;;;;7.93;4.70;;;8.40;99.90;;;;;;6208295;23;20411;-74
2023/02/17 01:53:18;;;;;;;7.00;4.30;;;8.40;99.90;;;;;;6207840;23;20713;-74
2023/02/17 01:55:46;;;;;;;4.37;3.43;;;8.40;99.90;;;;;;6207333;23;20877;-74
2023/02/17 01:58:17;;;;;;;7.50;4.23;;;8.50;99.90;;;;;;6207614;23;20446;-75
2023/02/17 02:00:46;;;;;;;7.30;4.63;;;8.60;99.90;;;;;;6208064;23;20391;-74
2023/02/17 02:03:13;;;;;;;7.87;5.00;;;8.70;99.90;;;;;;6207439;23;20407;-75
2023/02/17 02:05:41;;;;;;;6.87;4.80;;;8.90;99.90;;;;;;6207338;23;20583;-74
2023/02/17 02:08:09;;;;;;;7.60;4.63;;;8.80;99.90;;;;;;6207780;23;20407;-75
2023/02/17 02:10:35;;;;;;;6.17;4.97;;;9.00;99.90;;;;;;6207613;23;20415;-76
2023/02/17 02:13:03;;;;;;;5.83;4.10;;;8.90;99.90;;;;;;6207442;23;20403;-75
2023/02/17 02:15:35;;;;;;;9.30;4.37;;;8.90;99.90;;;;;;6212507;23;20407;-74
2023/02/17 02:18:20;;;;;;;5.70;4.73;;;9.00;99.90;;;;;;6207656;23;20857;-74
2023/02/17 02:21:13;;;;;;;5.80;4.67;;;9.10;99.90;;;;;;6207310;23;20952;-77
2023/02/17 02:24:15;;;;;;;12.33;4.90;;;9.20;99.90;;;;;;6208018;23;20430;-77
2023/02/17 02:27:12;;;;;;;10.33;4.20;;;9.20;99.90;;;;;;6179171;23;20411;-76
2023/02/17 02:30:07;;;;;;;6.17;3.70;;;9.10;99.90;;;;;;6208342;23;20387;-76
2023/02/17 02:33:01;;;;;;;8.47;4.60;;;9.10;99.90;;;;;;6207018;23;20388;-74
2023/02/17 02:35:36;;;;;;;4.77;3.80;;;9.10;99.90;;;;;;6202497;23;20447;-75
2023/02/17 02:38:10;;;;;;;6.63;4.43;;;9.20;99.90;;;;;;6207745;23;20391;-74
2023/02/17 02:40:42;;;;;;;7.33;3.93;;;9.20;99.90;;;;;;6208033;23;20396;-78
2023/02/17 02:43:09;;;;;;;6.67;4.40;;;9.20;99.90;;;;;;6207702;23;20899;-76
2023/02/17 02:45:36;;;;;;;7.30;4.60;;;9.20;99.90;;;;;;6207465;23;20415;-74
2023/02/17 02:48:04;;;;;;;5.97;3.93;;;9.20;99.90;;;;;;6207497;23;20406;-75
2023/02/17 02:50:55;;;;;;;4.97;4.23;;;9.30;99.90;;;;;;6206845;23;20407;-74
2023/02/17 02:53:41;;;;;;;6.47;4.40;;;9.20;99.90;;;;;;6207546;23;20387;-74
2023/02/17 02:56:17;;;;;;;7.07;4.97;;;9.20;99.90;;;;;;6209041;23;20398;-74
2023/02/17 02:58:53;;;;;;;5.47;3.70;;;9.20;99.90;;;;;;6209373;23;20435;-74
2023/02/17 03:01:30;;;;;;;6.03;5.37;;;9.20;99.90;;;;;;6224102;23;20411;-91
2023/02/17 03:04:06;;;;;;;6.30;4.40;;;9.30;99.90;;;;;;6226343;23;20386;-91
2023/02/17 03:06:39;;;;;;;8.40;4.70;;;9.20;99.90;;;;;;6245266;22;20391;-91
2023/02/17 03:09:10;;;;;;;5.40;4.47;;;9.20;99.90;;;;;;6242236;23;20393;-94
2023/02/17 03:11:36;;;;;;;5.60;3.80;;;9.20;99.90;;;;;;6243124;23;20411;-90
2023/02/17 03:14:05;;;;;;;6.10;4.40;;;9.30;99.90;;;;;;6243722;22;20498;-94
2023/02/17 03:39:51;;;;;;;6.10;4.33;;;9.20;99.90;;;;;;6215149;23;20415;-93
2023/02/17 03:50:04;;;;;;;4.20;3.70;;;9.30;99.90;;;;;;6242308;22;20465;-91
2023/02/17 03:52:31;;;;;;;6.90;4.63;;;9.20;99.90;;;;;;6238779;23;20431;-94
2023/02/17 03:57:35;;;;;;;4.40;4.00;;;9.20;99.90;;;;;;6213998;22;20438;-92
2023/02/17 04:00:03;;;;;;;6.07;3.97;;;9.20;99.90;;;;;;6242204;23;20399;-92
2023/02/17 04:02:30;;;;;;;4.63;3.10;;;9.50;99.90;;;;;;6240751;23;20418;-92
2023/02/17 04:38:49;;;;;;;6.30;3.20;;;9.30;99.90;;;;;;6188961;23;1455408;-94
2023/02/17 04:41:16;;;;;;;3.97;3.57;;;9.20;99.90;;;;;;6251172;23;20155;-92
2023/02/17 04:43:43;;;;;;;4.93;3.60;;;9.30;99.90;;;;;;6246513;23;20399;-92
2023/02/17 04:46:10;;;;;;;4.20;3.10;;;9.30;99.90;;;;;;6247604;23;20394;-96
2023/02/17 04:48:38;;;;;;;4.70;2.87;;;9.40;99.90;;;;;;6249053;23;20406;-92
2023/02/17 04:51:06;;;;;;;2.73;2.33;;;9.40;99.90;;;;;;6251339;23;20413;-92
2023/02/17 04:53:33;;;;;;;5.17;4.00;;;9.60;99.90;;;;;;6278061;23;20386;-92
2023/02/17 04:56:02;;;;;;;4.73;4.07;;;9.50;99.90;;;;;;6238339;22;20434;-90
2023/02/17 04:58:29;;;;;;;5.70;3.67;;;9.60;99.90;;;;;;6246683;22;20465;-94
2023/02/17 05:00:59;;;;;;;5.13;4.07;;;9.90;99.90;;;;;;6248624;23;20391;-92
2023/02/17 05:03:26;;;;;;;8.00;4.30;;;10.20;99.90;;;;;;6245554;23;20402;-93
2023/02/17 05:05:53;;;;;;;7.50;3.50;;;9.50;99.90;;;;;;6249899;22;20397;-90
2023/02/17 05:08:20;;;;;;;7.03;3.27;;;9.60;99.90;;;;;;6249670;23;20410;-93
2023/02/17 05:10:48;;;;;;;7.30;3.57;;;9.20;99.90;;;;;;6248737;23;20411;-95
2023/02/17 05:13:16;;;;;;;5.13;3.50;;;9.50;99.90;;;;;;6248925;22;20406;-84
2023/02/17 05:15:44;;;;;;;5.77;4.40;;;9.30;99.90;;;;;;6247384;22;20454;-90
2023/02/17 05:18:11;;;;;;;6.93;3.43;;;9.40;99.90;;;;;;6245288;22;20418;-92
2023/02/17 05:20:38;;;;;;;6.60;4.50;;;9.50;99.90;;;;;;6239276;22;20462;-93
2023/02/17 05:23:05;;;;;;;3.63;3.03;;;9.60;99.90;;;;;;6239537;22;20390;-93
2023/02/17 05:25:32;;;;;;;5.70;2.93;;;9.60;99.90;;;;;;6247633;22;20397;-93
2023/02/17 05:28:00;;;;;;;5.30;2.77;;;9.60;99.90;;;;;;6246919;22;20403;-90
2023/02/17 05:32:59;;;;;;;6.40;4.17;;;9.60;99.90;;;;;;6203049;23;20431;-95
2023/02/17 05:35:26;;;;;;;6.27;4.00;;;9.70;99.90;;;;;;6217178;22;20469;-95
2023/02/17 05:37:53;;;;;;;4.10;3.33;;;9.60;99.90;;;;;;6261378;23;20474;-93
2023/02/17 05:40:20;;;;;;;5.93;2.70;;;9.90;99.90;;;;;;6255027;23;20402;-93
2023/02/17 05:42:47;;;;;;;4.90;3.03;;;9.80;99.90;;;;;;6254782;23;20486;-94
2023/02/17 05:47:49;;;;;;;15.20;3.00;;;9.80;99.90;;;;;;6228560;22;20447;-94
2023/02/17 05:50:18;;;;;;;4.73;3.37;;;9.70;99.90;;;;;;6238927;22;20403;-94
2023/02/17 05:52:45;;;;;;;5.03;3.80;;;9.70;99.90;;;;;;6232450;23;20414;-90
2023/02/17 05:55:14;;;;;;;5.37;3.80;;;9.60;99.90;;;;;;6234086;23;20454;-93
2023/02/17 05:57:41;;;;;;;4.00;3.40;;;9.60;99.90;;;;;;6231895;23;20900;-92
2023/02/17 06:00:09;;;;;;;5.37;4.10;;;8.60;99.90;;;;;;6230863;23;20731;-91
2023/02/17 06:05:11;;;;;;;6.50;3.80;;;9.80;99.90;;;;;;6217056;22;20480;-94
2023/02/17 06:07:40;;;;;;;4.80;2.63;;;9.70;99.90;;;;;;6217938;23;20407;-91
2023/02/17 06:10:08;;;;;;;6.80;3.47;;;8.70;99.90;;;;;;6221345;22;20494;-81
2023/02/17 06:12:35;;;;;;;4.40;2.33;;;9.90;99.90;;;;;;6214135;23;20486;-80
2023/02/17 06:15:02;;;;;;;7.60;3.20;;;9.90;99.90;;;;;;6217061;23;20442;-93
2023/02/17 06:17:29;;;;;;;5.53;3.37;;;9.90;99.90;;;;;;6220301;23;20427;-91
2023/02/17 06:19:56;;;;;;;10.00;4.53;;;9.90;99.90;;;;;;6220870;23;20403;-95
2023/02/17 06:22:22;;;;;;;4.60;3.27;;;9.80;99.90;;;;;;6229217;23;20403;-94
2023/02/17 06:24:51;;;;;;;5.53;3.37;;;9.80;99.90;;;;;;6223577;23;20440;-82
2023/02/17 06:27:17;;;;;;;5.57;2.80;;;9.90;99.90;;;;;;6212841;23;20434;-80
2023/02/17 06:29:44;;;;;;;5.90;3.40;;;9.90;99.90;;;;;;6226477;22;20463;-95
2023/02/17 06:32:11;;;;;;;3.10;2.80;;;9.70;99.90;;;;;;6229982;23;20423;-93
2023/02/17 06:34:38;;;;;;;3.60;3.13;;;9.90;99.90;;;;;;6222753;23;20447;-91
2023/02/17 06:37:05;;;;;;;6.50;3.60;;;9.60;99.90;;;;;;6228870;22;20415;-92
2023/02/17 06:39:31;;;;;;;6.13;3.03;;;9.70;99.90;;;;;;6226268;23;20486;-92
2023/02/17 06:42:00;;;;;;;4.70;3.27;;;9.60;99.90;;;;;;6231768;23;20928;-95
2023/02/17 06:44:27;;;;;;;3.57;2.73;;;9.60;99.90;;;;;;6241732;22;20414;-94
2023/02/17 06:46:53;;;;;;;4.00;3.03;;;9.60;99.90;;;;;;6234057;23;20415;-91
2023/02/17 06:49:20;;;;;;;3.70;3.30;;;9.50;99.90;;;;;;6229918;23;20404;-93
2023/02/17 06:51:47;;;;;;;5.87;3.10;;;9.60;99.90;;;;;;6234925;23;20431;-92
2023/02/17 06:54:14;;;;;;;3.80;2.90;;;9.60;99.90;;;;;;6232452;23;20391;-91
2023/02/17 06:56:41;;;;;;;7.17;3.90;;;9.70;99.90;;;;;;6228638;22;20928;-93
2023/02/17 06:59:09;;;;;;;3.30;2.93;;;9.10;99.90;;;;;;6229254;23;20475;-92
2023/02/17 07:06:47;;;;;;;9.67;4.10;;;9.70;99.90;;;;;;6219345;22;20521;-77
2023/02/17 07:09:14;;;;;;;11.67;2.80;;;9.70;99.90;;;;;;6208551;23;20734;-77
2023/02/17 07:11:43;;;;;;;5.23;2.97;;;9.80;99.90;;;;;;6208498;23;21009;-77
2023/02/17 07:14:11;;;;;;;6.60;3.83;;;9.80;99.90;;;;;;6208142;23;20415;-76
2023/02/17 07:16:38;;;;;;;6.33;3.00;;;10.00;99.90;;;;;;6209689;23;20764;-77
2023/02/17 07:19:05;;;;;;;9.23;3.93;;;10.10;99.90;;;;;;6208286;23;20411;-77
2023/02/17 07:21:32;;;;;;;5.57;2.77;;;10.10;99.90;;;;;;6209408;23;20446;-80
2023/02/17 07:23:59;;;;;;;9.40;3.27;;;10.30;99.90;;;;;;6209526;23;20463;-78
2023/02/17 07:26:25;;;;;;;9.30;3.07;;;10.20;99.90;;;;;;6211576;23;20407;-79
2023/02/17 07:28:52;;;;;;;10.80;3.37;;;10.30;99.90;;;;;;6214964;23;20399;-91
2023/02/17 07:31:20;;;;;;;6.43;3.30;;;10.60;99.90;;;;;;6213060;23;20411;-83
2023/02/17 07:33:48;;;;;;;3.93;2.97;;;10.50;99.90;;;;;;6217978;23;20400;-80
2023/02/17 07:36:17;;;;;;;7.03;2.77;;;10.50;99.90;;;;;;6216363;23;20487;-86
2023/02/17 07:38:44;;;;;;;4.00;2.60;;;10.50;99.90;;;;;;6214290;23;20761;-85
2023/02/17 07:41:13;;;;;;;4.97;3.13;;;10.60;99.90;;;;;;6217585;23;20730;-82
2023/02/17 07:43:40;;;;;;;7.30;3.60;;;10.70;99.90;;;;;;6218910;23;20465;-82
2023/02/17 07:46:08;;;;;;;8.10;3.37;;;10.70;99.90;;;;;;6217367;23;20434;-84
2023/02/17 07:48:37;;;;;;;4.70;4.10;;;10.70;99.90;;;;;;6216462;23;20941;-83
2023/02/17 07:51:08;;;;;;;7.30;3.33;;;10.70;99.90;;;;;;6216573;23;20519;-87
2023/02/17 07:53:35;;;;;;;9.50;3.80;;;10.80;99.90;;;;;;6214029;23;20754;-84
2023/02/17 07:56:03;;;;;;;5.50;3.67;;;10.80;99.90;;;;;;6214087;23;20541;-83
2023/02/17 07:58:31;;;;;;;4.03;3.10;;;10.80;99.90;;;;;;6214873;23;20852;-77
2023/02/17 08:00:58;;;;;;;9.43;3.67;;;10.80;99.90;;;;;;6211874;23;20408;-80
2023/02/17 08:03:25;;;;;;;11.27;3.47;;;10.80;99.90;;;;;;6213972;23;20498;-79
2023/02/17 08:05:53;;;;;;;5.10;3.20;;;10.90;99.90;;;;;;6214142;23;20403;-81
2023/02/17 08:13:49;;;;;;;4.87;2.90;;;10.80;99.90;;;;;;6220723;23;20406;-81
2023/02/17 08:16:16;;;;;;;7.63;3.13;;;10.80;99.90;;;;;;6224727;23;20451;-84
2023/02/17 08:18:42;;;;;;;4.50;3.23;;;10.80;99.90;;;;;;6224481;23;20413;-83
2023/02/17 08:21:10;;;;;;;4.53;3.47;;;10.80;99.90;;;;;;6230452;23;20482;-86
2023/02/17 08:23:38;;;;;;;5.87;3.03;;;10.80;99.90;;;;;;6232602;23;20416;-89
2023/02/17 08:26:05;;;;;;;7.30;3.80;;;10.80;99.90;;;;;;6234015;23;20396;-89
2023/02/17 08:28:32;;;;;;;6.23;3.17;;;10.80;99.90;;;;;;6239695;22;20406;-90
2023/02/17 08:31:01;;;;;;;6.80;3.30;;;10.80;99.90;;;;;;6230722;23;20792;-91
2023/02/17 08:33:28;;;;;;;5.70;3.00;;;10.90;99.90;;;;;;6227820;23;20396;-93
2023/02/17 08:35:55;;;;;;;7.30;3.60;;;11.00;99.90;;;;;;6227361;23;20498;-92
2023/02/17 08:38:25;;;;;;;5.37;3.47;;;11.00;99.90;;;;;;6227368;23;20410;-91
2023/02/17 08:40:52;;;;;;;4.93;3.43;;;11.00;99.90;;;;;;6225248;23;20391;-85
2023/02/17 08:43:19;;;;;;;11.33;5.53;;;11.30;99.90;;;;;;6227014;23;20403;-82
2023/02/17 08:45:46;;;;;;;5.83;3.37;;;11.10;99.90;;;;;;6226759;23;20419;-82
2023/02/17 08:48:12;;;;;;;5.67;3.57;;;11.50;99.90;;;;;;6228686;23;20431;-82
2023/02/17 08:50:39;;;;;;;4.57;2.90;;;11.40;99.90;;;;;;6220718;23;20450;-80
2023/02/17 08:53:06;;;;;;;6.30;3.03;;;11.30;99.90;;;;;;6212724;23;20494;-84
2023/02/17 08:55:34;;;;;;;4.50;2.50;;;11.50;99.90;;;;;;6216244;23;20470;-84
2023/02/17 08:58:01;;;;;;;6.33;3.50;;;11.10;99.90;;;;;;6212849;23;20451;-80
2023/02/17 09:00:28;;;;;;;5.10;3.40;;;11.20;99.90;;;;;;6217172;23;20387;-95
2023/02/17 09:02:55;;;;;;;8.37;3.37;;;11.20;99.90;;;;;;6226456;23;21016;-91
2023/02/17 09:05:22;;;;;;;4.60;3.30;;;11.30;99.90;;;;;;6217680;22;20888;-90
2023/02/17 09:07:49;;;;;;;7.50;4.17;;;11.40;99.90;;;;;;6208625;22;20462;-80
2023/02/17 09:10:16;;;;;;;8.60;3.13;;;11.10;99.90;;;;;;6208448;23;20404;-78
2023/02/17 09:12:44;;;;;;;8.17;4.20;;;11.30;99.90;;;;;;6210922;23;20409;-79
2023/02/17 09:15:11;;;;;;;9.50;3.40;;;11.00;99.90;;;;;;6211376;23;20470;-79
2023/02/17 09:17:41;;;;;;;9.30;3.30;;;10.80;99.90;;;;;;6210297;23;20478;-77
2023/02/17 09:20:09;;;;;;;7.43;3.80;;;10.70;99.90;;;;;;6210105;23;20437;-79
2023/02/17 09:22:36;;;;;;;5.53;3.30;;;10.60;99.90;;;;;;6209872;23;20489;-77
2023/02/17 09:25:03;;;;;;;6.53;4.10;;;10.60;99.90;;;;;;6209810;23;20494;-74
2023/02/17 09:27:31;;;;;;;5.80;3.70;;;10.60;99.90;;;;;;6209014;23;20402;-74
2023/02/17 09:29:59;;;;;;;5.33;3.57;;;10.60;99.90;;;;;;6208459;23;20475;-74
2023/02/17 09:32:26;;;;;;;8.27;3.90;;;10.70;99.90;;;;;;6209497;23;20507;-75
2023/02/17 09:34:53;;;;;;;4.60;3.17;;;10.80;99.90;;;;;;6208813;23;20425;-73
2023/02/17 09:37:21;;;;;;;8.20;3.83;;;10.80;99.90;;;;;;6209785;23;20470;-75
2023/02/17 09:39:49;;;;;;;6.87;3.90;;;10.80;99.90;;;;;;6209554;23;20429;-73
2023/02/17 09:42:20;;;;;;;4.97;3.27;;;11.00;99.90;;;;;;6209602;23;20415;-75
2023/02/17 09:44:50;;;;;;;5.27;3.37;;;10.90;99.90;;;;;;6209818;23;20453;-76
2023/02/17 09:47:23;;;;;;;10.27;4.60;;;10.90;99.90;;;;;;6209843;23;20396;-77
2023/02/17 09:49:55;;;;;;;6.87;3.50;;;11.00;99.90;;;;;;6208653;23;20395;-74
2023/02/17 09:52:27;;;;;;;4.87;2.93;;;11.10;99.90;;;;;;6209591;23;20426;-74
2023/02/17 09:55:03;;;;;;;4.50;3.80;;;11.20;99.90;;;;;;6210275;23;20478;-75
2023/02/17 09:57:35;;;;;;;7.30;4.50;;;11.20;99.90;;;;;;6209931;23;21011;-77
2023/02/17 10:00:08;;;;;;;9.80;2.97;;;11.20;99.90;;;;;;6211383;23;20392;-72
2023/02/17 10:02:42;;;;;;;4.70;3.53;;;11.40;99.90;;;;;;6209568;23;20851;-74
2023/02/17 10:05:14;;;;;;;6.07;3.07;;;11.50;99.90;;;;;;6209708;23;20385;-70
2023/02/17 10:07:46;;;;;;;8.83;4.53;;;11.40;99.90;;;;;;6210165;23;20426;-70
2023/02/17 10:10:18;;;;;;;5.67;3.23;;;11.50;99.90;;;;;;6210903;23;20396;-73
2023/02/17 10:12:48;;;;;;;4.50;3.20;;;11.50;99.90;;;;;;6211156;23;20418;-73
2023/02/17 10:15:19;;;;;;;6.20;3.67;;;11.50;99.90;;;;;;6212282;23;20472;-77
2023/02/17 10:17:53;;;;;;;8.80;3.20;;;11.70;99.90;;;;;;6213033;23;20388;-72
2023/02/17 10:20:23;;;;;;;6.80;4.63;;;12.10;99.90;;;;;;6217592;23;20892;-71
2023/02/17 10:22:54;;;;;;;6.90;4.20;;;12.00;99.90;;;;;;6221880;23;20411;-74
2023/02/17 10:25:30;;;;;;;8.53;3.67;;;12.00;99.90;;;;;;6223584;23;20385;-75
2023/02/17 10:28:07;;;;;;;5.43;2.80;;;12.00;99.90;;;;;;6219613;23;20390;-75
2023/02/17 10:30:40;;;;;;;4.30;2.73;;;11.90;99.90;;;;;;6212302;23;20406;-73
2023/02/17 10:33:18;;;;;;;6.70;3.53;;;12.00;99.90;;;;;;6214949;23;20406;-79
2023/02/17 10:35:50;;;;;;;13.47;3.87;;;12.10;99.90;;;;;;6212162;23;20435;-75
2023/02/17 10:38:25;;;;;;;13.17;3.63;;;12.30;99.90;;;;;;6211321;23;20407;-77
2023/02/17 10:40:55;;;;;;;8.20;3.60;;;12.40;99.90;;;;;;6213350;23;20895;-80
2023/02/17 10:43:25;;;;;;;5.10;3.30;;;12.50;99.90;;;;;;6212485;23;20413;-75
2023/02/17 10:45:52;;;;;;;13.00;4.60;;;12.70;99.90;;;;;;6209555;23;20403;-74
2023/02/17 10:48:28;;;;;;;6.70;3.37;;;13.00;99.90;;;;;;6209534;23;20407;-74
2023/02/17 10:50:59;;;;;;;8.10;4.00;;;13.10;99.90;;;;;;6209408;23;20850;-74
2023/02/17 10:53:30;;;;;;;3.63;2.47;;;13.00;99.90;;;;;;6209762;23;20741;-75
2023/02/17 10:56:02;;;;;;;5.90;3.47;;;13.30;99.90;;;;;;6210126;23;20434;-74
2023/02/17 10:58:33;;;;;;;3.63;3.00;;;13.20;99.90;;;;;;6210300;23;20391;-75
2023/02/17 11:01:01;;;;;;;7.80;3.10;;;13.60;99.90;;;;;;6209668;23;20479;-75
2023/02/17 11:03:31;;;;;;;4.70;3.20;;;13.80;99.90;;;;;;6209520;23;20714;-75
2023/02/17 11:06:00;;;;;;;7.70;3.83;;;13.80;99.90;;;;;;6209486;23;20501;-74
2023/02/17 11:08:34;;;;;;;4.03;2.53;;;13.50;99.90;;;;;;6210601;23;20396;-75
2023/02/17 11:11:05;;;;;;;5.13;3.30;;;13.80;99.90;;;;;;6208641;23;20433;-75
2023/02/17 11:13:35;;;;;;;3.60;3.30;;;13.50;99.90;;;;;;6209952;23;20417;-75
2023/02/17 11:16:03;;;;;;;4.40;2.93;;;13.70;99.90;;;;;;6211905;23;20431;-74
2023/02/17 11:18:34;;;;;;;6.80;2.50;;;13.70;99.90;;;;;;6215705;23;20482;-77
2023/02/17 11:21:05;;;;;;;7.23;3.60;;;13.40;99.90;;;;;;6212097;23;20678;-74
2023/02/17 11:23:33;;;;;;;4.63;3.33;;;13.70;99.90;;;;;;6209781;23;20392;-75
2023/02/17 11:26:03;;;;;;;7.10;3.37;;;13.60;99.90;;;;;;6210373;23;20490;-74
2023/02/17 11:28:30;;;;;;;4.00;2.80;;;13.40;99.90;;;;;;6206625;23;20409;-75
2023/02/17 11:31:01;;;;;;;5.63;2.90;;;13.20;99.90;;;;;;6208064;23;20502;-75
2023/02/17 11:33:33;;;;;;;4.93;2.97;;;13.30;99.90;;;;;;6208327;23;20730;-75
2023/02/17 11:36:01;;;;;;;5.63;3.00;;;13.60;99.90;;;;;;6207569;23;20431;-75
2023/02/17 11:38:33;;;;;;;6.83;3.23;;;13.70;99.90;;;;;;6208078;23;20785;-76
2023/02/17 11:41:01;;;;;;;5.50;2.50;;;13.90;99.90;;;;;;6208339;23;20410;-75
2023/02/17 11:43:29;;;;;;;5.97;2.80;;;14.30;99.90;;;;;;6207507;23;21015;-73
2023/02/17 11:46:04;;;;;;;6.80;3.10;;;13.80;99.90;;;;;;6208156;23;20542;-74
2023/02/17 11:49:14;;;;;;;5.23;2.57;;;13.80;99.90;;;;;;6207631;23;20907;-75
2023/02/17 11:51:53;;;;;;;4.17;2.07;;;13.60;99.90;;;;;;6208428;23;20815;-75
2023/02/17 11:54:24;;;;;;;5.00;3.00;;;13.30;99.90;;;;;;6207913;23;20415;-74
2023/02/17 11:57:03;;;;;;;4.50;2.77;;;13.20;99.90;;;;;;6208043;23;20490;-75
2023/02/17 11:59:43;;;;;;;7.40;2.60;;;13.20;99.90;;;;;;6207244;23;20893;-74
2023/02/17 12:02:23;;;;;;;2.60;2.40;;;13.40;99.90;;;;;;6208578;23;20407;-74
2023/02/17 12:05:11;;;;;;;4.90;3.20;;;13.30;99.90;;;;;;6207949;23;20478;-73
2023/02/17 12:07:53;;;;;;;6.63;3.13;;;13.60;99.90;;;;;;6207919;23;20445;-74
2023/02/17 12:10:29;;;;;;;6.20;2.77;;;13.40;99.90;;;;;;6207451;23;20388;-73
2023/02/17 12:13:12;;;;;;;4.47;2.87;;;13.60;99.90;;;;;;6207428;23;20729;-73
2023/02/17 12:15:55;;;;;;;4.50;2.40;;;14.30;99.90;;;;;;6207157;23;20403;-74
2023/02/17 12:18:34;;;;;;;9.77;2.97;;;14.90;99.90;;;;;;6207747;23;20395;-73
2023/02/17 12:21:09;;;;;;;10.13;3.30;;;15.10;99.90;;;;;;6207521;23;20410;-73
2023/02/17 12:24:05;;;;;;;7.83;2.80;;;14.60;99.90;;;;;;6206812;23;20923;-73
2023/02/17 12:26:37;;;;;;;4.23;2.77;;;14.10;99.90;;;;;;6206996;23;20411;-73
2023/02/17 12:29:15;;;;;;;8.00;2.63;;;13.80;99.90;;;;;;6207279;23;20398;-74
2023/02/17 12:31:56;;;;;;;6.53;3.00;;;13.60;99.90;;;;;;6207323;23;20407;-74
2023/02/17 12:34:31;;;;;;;3.20;2.37;;;13.50;99.90;;;;;;6207101;23;20399;-75
2023/02/17 12:37:01;;;;;;;9.10;3.57;;;13.40;99.90;;;;;;6207672;23;20433;-74
2023/02/17 12:39:34;;;;;;;4.00;2.37;;;13.40;99.90;;;;;;6206978;23;20407;-74
2023/02/17 12:42:04;;;;;;;5.93;3.50;;;13.60;99.90;;;;;;6208024;23;20479;-75
2023/02/17 12:44:36;;;;;;;5.60;2.70;;;13.40;99.90;;;;;;6207806;23;20764;-74
2023/02/17 12:47:10;;;;;;;4.37;1.97;;;13.30;99.90;;;;;;6209043;23;20458;-75
2023/02/17 12:49:43;;;;;;;14.27;2.97;;;13.30;99.90;;;;;;6209502;23;20638;-74
2023/02/17 12:52:18;;;;;;;5.63;2.10;;;13.10;99.90;;;;;;6210397;23;20427;-75
2023/02/17 12:54:51;;;;;;;3.83;2.07;;;13.00;99.90;;;;;;6210189;23;20869;-75
2023/02/17 12:57:22;;;;;;;5.20;2.83;;;12.90;99.90;;;;;;6208604;23;20442;-75
2023/02/17 12:59:51;;;;;;;5.60;3.00;;;13.10;99.90;;;;;;6208617;23;20975;-74
2023/02/17 13:02:21;;;;;;;2.90;2.60;;;12.90;99.90;;;;;;6208588;23;20478;-75
2023/02/17 13:04:50;;;;;;;3.40;2.47;;;12.90;99.90;;;;;;6209507;23;20407;-75
2023/02/17 13:07:32;;;;;;;3.40;2.10;;;12.90;99.90;;;;;;6207975;23;20427;-76
2023/02/17 13:09:59;;;;;;;6.50;3.30;;;12.90;99.90;;;;;;6208213;23;20892;-74
2023/02/17 13:12:36;;;;;;;8.03;3.53;;;12.90;99.90;;;;;;6208846;23;20434;-75
2023/02/17 13:15:07;;;;;;;3.40;3.10;;;12.90;99.90;;;;;;6209157;23;20872;-78
2023/02/17 13:17:36;;;;;;;4.03;2.47;;;12.80;99.90;;;;;;6208921;23;20671;-76
2023/02/17 13:20:26;;;;;;;3.90;2.80;;;12.80;99.90;;;;;;6208144;23;21002;-78
2023/02/17 13:23:07;;;;;;;3.23;2.93;;;12.70;99.90;;;;;;6208930;23;20880;-75
2023/02/17 13:25:36;;;;;;;5.00;3.07;;;12.70;99.90;;;;;;6208339;23;20445;-75
2023/02/17 13:28:45;;;;;;;3.67;2.07;;;12.70;99.90;;;;;;6203131;23;20708;-72
2023/02/17 13:31:26;;;;;;;2.50;2.30;;;13.30;99.90;;;;;;6157749;23;20418;-72
2023/02/17 13:33:59;;;;;;;3.83;1.80;;;12.70;99.90;;;;;;6203773;23;20941;-73
2023/02/17 13:36:49;;;;;;;2.90;2.53;;;12.70;99.90;;;;;;6204355;23;20986;-73
2023/02/17 13:39:55;;;;;;;3.03;2.73;;;12.70;99.90;;;;;;6205714;23;20398;-72
2023/02/17 13:42:43;;;;;;;4.80;2.33;;;12.90;99.90;;;;;;6205669;23;20482;-72
2023/02/17 13:45:25;;;;;;;3.17;2.20;;;12.60;99.90;;;;;;6204955;23;20901;-72
2023/02/17 13:47:58;;;;;;;3.80;2.67;;;13.60;99.90;;;;;;6206388;23;20990;-71
2023/02/17 13:50:34;;;;;;;2.73;2.50;;;12.60;99.90;;;;;;6205952;23;20500;-73
2023/02/17 13:53:19;;;;;;;4.93;1.97;;;12.80;99.90;;;;;;6207811;23;20430;-72
2023/02/17 13:55:53;;;;;;;2.80;2.17;;;12.70;99.90;;;;;;6206502;23;20414;-72
2023/02/17 13:58:32;;;;;;;5.37;2.27;;;13.30;99.90;;;;;;6204567;23;20986;-72
2023/02/17 14:01:06;;;;;;;4.30;2.60;;;12.70;99.90;;;;;;6204091;23;20410;-73
2023/02/17 14:03:43;;;;;;;3.67;2.20;;;12.80;99.90;;;;;;6205751;23;20451;-72
2023/02/17 14:06:28;;;;;;;3.10;2.10;;;12.90;99.90;;;;;;6205885;23;20506;-73
2023/02/17 14:09:05;;;;;;;6.20;2.73;;;12.70;99.90;;;;;;6203273;23;20787;-73
2023/02/17 14:11:48;;;;;;;3.90;2.37;;;12.70;99.90;;;;;;6207319;23;20403;-73
2023/02/17 14:14:20;;;;;;;2.93;2.13;;;12.90;99.90;;;;;;6208249;23;20451;-73
2023/02/17 14:17:04;;;;;;;4.37;2.63;;;12.60;99.90;;;;;;6209088;23;20435;-72
2023/02/17 14:19:45;;;;;;;4.57;1.70;;;12.60;99.90;;;;;;6207710;23;20399;-73
2023/02/17 14:22:36;;;;;;;2.30;2.00;;;12.70;99.90;;;;;;6208001;23;21092;-73
2023/02/17 14:25:29;;;;;;;2.60;2.10;;;12.80;99.90;;;;;;6207428;23;20762;-73
2023/02/17 14:28:05;;;;;;;3.20;2.03;;;13.00;99.90;;;;;;6206888;23;20383;-74
2023/02/17 14:30:37;;;;;;;6.23;2.40;;;12.50;99.90;;;;;;6205892;23;20390;-75
2023/02/17 14:33:19;;;;;;;6.53;2.50;;;12.70;99.90;;;;;;6206140;23;20418;-72
2023/02/17 14:36:09;;;;;;;1.93;1.73;;;12.60;99.90;;;;;;6206666;23;20411;-76
2023/02/17 14:38:51;;;;;;;4.90;2.80;;;12.50;99.90;;;;;;6205849;23;20521;-73